Time;durP1;ratioP1;P1;durP2;ratioP2;P2;SDS_P1;SDS_P2;PMS_P1;PMS_P2;Temp;Humidity;BMP_temperature;BMP_pressure;BME280_temperature;BME280_humidity;BME280_pressure;Samples;Min_cycle;Max_cycle;Signal;HPM_P1;HPM_P2
2023/10/15 00:00:34;;;;;;;;;;;;;;;6.40;100.00;101173.50;6094459;23;20364;-75
2023/10/15 00:03:02;;;;;;;6.15;0.95;;;;;;;6.30;100.00;101174.06;6117354;23;19943;-74
2023/10/15 00:05:32;;;;;;;4.20;0.80;;;;;;;6.34;100.00;101179.72;6068267;23;20097;-75
2023/10/15 00:08:03;;;;;;;4.13;1.20;;;;;;;6.35;100.00;101170.69;6093561;23;20021;-75
2023/10/15 00:10:32;;;;;;;5.65;1.55;;;;;;;6.38;100.00;101175.59;6091764;23;20432;-74
2023/10/15 00:12:59;;;;;;;5.10;0.82;;;;;;;6.36;100.00;101164.34;6118329;23;20005;-74
2023/10/15 00:15:31;;;;;;;3.97;0.80;;;;;;;6.41;100.00;101159.13;6117375;23;20021;-75
2023/10/15 00:18:15;;;;;;;5.72;0.82;;;;;;;6.43;100.00;101167.69;6094625;23;20076;-74
2023/10/15 00:20:47;;;;;;;1.50;0.82;;;;;;;6.40;100.00;101168.16;6093872;23;20017;-75
2023/10/15 00:23:17;;;;;;;5.03;1.27;;;;;;;6.36;100.00;101169.66;6118052;23;20017;-75
2023/10/15 00:25:54;;;;;;;4.63;1.00;;;;;;;6.39;100.00;101182.50;6068687;23;20597;-74
2023/10/15 00:28:20;;;;;;;3.50;1.10;;;;;;;6.37;100.00;101174.78;6069708;23;20637;-74
2023/10/15 00:31:12;;;;;;;4.03;1.17;;;;;;;6.40;100.00;101173.50;6096921;23;20022;-76
2023/10/15 00:33:53;;;;;;;4.50;1.00;;;;;;;6.38;100.00;101171.06;6121584;23;20091;-73
2023/10/15 00:36:23;;;;;;;3.47;0.90;;;;;;;6.42;100.00;101168.75;6115499;23;20027;-75
2023/10/15 00:38:51;;;;;;;5.38;0.80;;;;;;;6.42;100.00;101171.41;6095332;23;20021;-74
2023/10/15 00:41:19;;;;;;;4.47;1.05;;;;;;;6.34;100.00;101163.78;6118256;23;20023;-76
2023/10/15 00:43:52;;;;;;;;;;;;;;;6.35;100.00;101162.72;6069971;23;20023;-75
2023/10/15 00:46:19;;;;;;;4.35;1.00;;;;;;;6.25;100.00;101150.00;6093793;23;19912;-74
2023/10/15 00:48:51;;;;;;;3.22;0.90;;;;;;;6.27;100.00;101154.06;6094163;23;20021;-76
2023/10/15 00:51:20;;;;;;;3.92;1.17;;;;;;;6.25;100.00;101168.63;6069301;23;20021;-76
2023/10/15 00:53:58;;;;;;;1.75;0.73;;;;;;;6.27;100.00;101170.00;6072136;23;20079;-75
2023/10/15 00:56:33;;;;;;;1.85;0.80;;;;;;;6.29;100.00;101183.88;6093255;23;20052;-75
2023/10/15 00:59:13;;;;;;;4.63;1.00;;;;;;;6.25;100.00;101184.59;6118132;23;20024;-75
2023/10/15 01:01:51;;;;;;;2.55;0.77;;;;;;;6.31;100.00;101207.63;6118679;23;20790;-74
2023/10/15 01:04:24;;;;;;;4.57;1.40;;;;;;;6.28;100.00;101186.78;6117800;23;20045;-74
2023/10/15 01:07:00;;;;;;;6.00;0.95;;;;;;;6.31;100.00;101204.94;6071606;23;20018;-74
2023/10/15 01:09:34;;;;;;;2.63;0.80;;;;;;;6.28;100.00;101202.72;6073354;23;20014;-75
2023/10/15 01:12:25;;;;;;;7.13;1.50;;;;;;;6.22;100.00;101183.19;6117880;23;20017;-74
2023/10/15 01:15:12;;;;;;;3.05;1.17;;;;;;;6.29;100.00;101191.84;6143555;23;20041;-75
2023/10/15 01:17:38;;;;;;;3.00;0.88;;;;;;;6.31;100.00;101196.16;6070389;23;20076;-76
2023/10/15 01:20:09;;;;;;;4.35;1.10;;;;;;;6.34;100.00;101201.00;6116938;23;20010;-75
2023/10/15 01:22:41;;;;;;;3.92;0.70;;;;;;;6.33;100.00;101216.16;6117058;23;20021;-76
2023/10/15 01:25:16;;;;;;;7.05;0.93;;;;;;;6.38;100.00;101208.31;6068549;23;20063;-74
2023/10/15 01:27:58;;;;;;;3.55;0.60;;;;;;;6.33;100.00;101215.34;6094538;23;20025;-74
2023/10/15 01:30:29;;;;;;;5.53;1.10;;;;;;;6.37;100.00;101216.50;6068817;23;20014;-75
2023/10/15 01:32:57;;;;;;;4.85;1.10;;;;;;;6.33;100.00;101213.50;6092641;23;20108;-75
2023/10/15 01:35:24;;;;;;;3.30;1.13;;;;;;;6.38;100.00;101207.50;6114891;23;20075;-76
2023/10/15 01:38:09;;;;;;;5.60;1.10;;;;;;;6.37;100.00;101216.50;6070169;23;20448;-74
2023/10/15 01:40:44;;;;;;;2.42;0.77;;;;;;;6.37;100.00;101208.53;6093418;23;20024;-74
2023/10/15 01:43:15;;;;;;;6.30;1.38;;;;;;;6.33;100.00;101215.34;6068387;23;20479;-76
2023/10/15 01:45:47;;;;;;;2.40;0.68;;;;;;;6.38;100.00;101203.00;6117228;23;20463;-76
2023/10/15 01:48:24;;;;;;;6.03;1.33;;;;;;;6.36;100.00;101201.59;6068125;23;20013;-75
2023/10/15 01:50:51;;;;;;;3.65;0.80;;;;;;;6.42;100.00;101198.00;6092979;23;20088;-76
2023/10/15 01:53:39;;;;;;;2.03;1.10;;;;;;;6.38;100.00;101191.53;6068012;23;20013;-74
2023/10/15 01:56:28;;;;;;;3.65;0.50;;;;;;;6.37;100.00;101189.91;6076157;23;20911;-75
2023/10/15 01:58:57;;;;;;;4.35;0.90;;;;;;;6.36;100.00;101205.06;6069602;23;20048;-76
2023/10/15 02:01:34;;;;;;;4.35;0.82;;;;;;;6.34;100.00;101212.47;6092601;23;20009;-74
2023/10/15 02:04:15;;;;;;;4.40;0.80;;;;;;;6.35;100.00;101229.22;6118580;23;20013;-75
2023/10/15 02:06:51;;;;;;;7.13;1.20;;;;;;;6.37;100.00;101233.31;6117747;23;20017;-75
2023/10/15 02:09:29;;;;;;;3.70;1.02;;;;;;;6.36;100.00;101241.47;6091880;23;20100;-74
2023/10/15 02:12:07;;;;;;;4.57;1.30;;;;;;;6.35;100.00;101226.56;6093203;23;20451;-76
2023/10/15 02:14:34;;;;;;;4.70;0.90;;;;;;;6.35;100.00;101219.41;6118600;23;20017;-74
2023/10/15 02:17:06;;;;;;;4.40;0.82;;;;;;;6.31;100.00;101206.81;6092527;23;20017;-75
2023/10/15 02:19:40;;;;;;;4.90;0.85;;;;;;;6.36;100.00;101213.03;6093976;23;20091;-75
2023/10/15 02:22:09;;;;;;;9.60;1.60;;;;;;;6.31;100.00;101201.47;6116527;23;20447;-75
2023/10/15 02:24:37;;;;;;;3.08;0.70;;;;;;;6.30;100.00;101206.00;6068918;23;20103;-75
2023/10/15 02:27:05;;;;;;;3.85;0.90;;;;;;;6.32;100.00;101205.75;6092325;23;20055;-75
2023/10/15 02:32:07;;;;;;;5.22;0.85;;;;;;;6.32;100.00;101219.06;6115341;23;20472;-76
2023/10/15 02:34:42;;;;;;;3.20;1.08;;;;;;;6.28;100.00;101216.84;6068891;23;20048;-76
2023/10/15 02:37:18;;;;;;;3.30;0.80;;;;;;;6.28;100.00;101213.38;6089685;23;20017;-77
2023/10/15 02:39:49;;;;;;;5.05;0.85;;;;;;;6.29;100.00;101213.13;6093443;23;20067;-75
2023/10/15 02:42:19;;;;;;;5.65;1.05;;;;;;;6.29;100.00;101218.47;6091448;23;20049;-76
2023/10/15 02:44:51;;;;;;;4.75;1.00;;;;;;;6.32;100.00;101213.75;6092744;23;20013;-74
2023/10/15 02:47:28;;;;;;;6.60;1.45;;;;;;;6.29;100.00;101215.78;6091172;23;20043;-75
2023/10/15 02:52:43;;;;;;;5.13;1.48;;;;;;;6.28;100.00;101208.88;6117750;23;20092;-74
2023/10/15 02:55:14;;;;;;;3.75;0.98;;;;;;;6.28;100.00;101192.91;6145075;23;20013;-74
2023/10/15 02:57:41;;;;;;;3.15;0.77;;;;;;;6.31;100.00;101204.16;6120088;23;20527;-74
2023/10/15 03:00:28;;;;;;;6.30;1.10;;;;;;;6.31;100.00;101198.81;6094309;23;20068;-74
2023/10/15 03:02:57;;;;;;;4.75;0.75;;;;;;;6.31;100.00;101201.47;6095364;23;20096;-76
2023/10/15 03:05:30;;;;;;;3.17;1.20;;;;;;;6.29;100.00;101205.16;6069840;23;20395;-75
2023/10/15 03:07:56;;;;;;;;;;;;;;;6.26;100.00;101207.47;6072047;23;20024;-76
2023/10/15 03:10:22;;;;;;;3.22;1.33;;;;;;;6.29;100.00;101221.13;6094484;23;19927;-74
2023/10/15 03:12:48;;;;;;;4.32;0.90;;;;;;;6.28;100.00;101224.81;6121725;23;20013;-74
2023/10/15 03:15:14;;;;;;;;;;;;;;;6.32;100.00;101214.56;6096376;23;20084;-74
2023/10/15 03:17:44;;;;;;;5.63;0.80;;;;;;;6.29;100.00;101221.13;6121649;23;19958;-75
2023/10/15 03:22:46;;;;;;;3.97;0.85;;;;;;;6.26;100.00;101213.63;6096993;23;20017;-75
2023/10/15 03:25:13;;;;;;;8.25;1.25;;;;;;;6.24;100.00;101213.03;6094099;23;20884;-74
2023/10/15 03:27:46;;;;;;;3.15;0.80;;;;;;;6.25;100.00;101209.34;6098072;23;20093;-76
2023/10/15 03:30:22;;;;;;;5.00;1.20;;;;;;;6.24;100.00;101213.03;6072776;23;20017;-74
2023/10/15 03:32:47;;;;;;;2.30;0.85;;;;;;;6.24;100.00;101209.56;6121682;23;20059;-74
2023/10/15 03:38:23;;;;;;;5.70;1.00;;;;;;;6.23;100.00;101219.41;6119363;23;20044;-75
2023/10/15 03:40:47;;;;;;;8.13;0.93;;;;;;;6.25;100.00;101230.63;6095798;23;20097;-73
2023/10/15 03:43:20;;;;;;;4.43;0.90;;;;;;;6.24;100.00;101239.63;6072836;23;20025;-76
2023/10/15 03:45:53;;;;;;;7.22;0.98;;;;;;;6.24;100.00;101236.97;6120910;23;20049;-73
2023/10/15 03:48:30;;;;;;;6.05;1.25;;;;;;;6.25;100.00;101246.56;6095963;23;20099;-76
2023/10/15 03:50:57;;;;;;;5.93;1.10;;;;;;;6.25;100.00;101248.44;6095557;23;20017;-76
2023/10/15 03:53:27;;;;;;;7.65;1.67;;;;;;;6.23;100.00;101261.97;6072189;23;20014;-74
2023/10/15 03:56:03;;;;;;;3.65;1.00;;;;;;;6.19;100.00;101260.78;6072329;23;20079;-76
2023/10/15 03:58:31;;;;;;;5.20;1.65;;;;;;;6.17;100.00;101257.53;6120317;23;20044;-74
2023/10/15 04:01:16;;;;;;;12.90;2.55;;;;;;;6.17;100.00;101264.72;6119584;23;20006;-75
2023/10/15 04:03:48;;;;;;;7.63;1.67;;;;;;;6.16;100.00;101242.59;6146309;23;20014;-75
2023/10/15 04:06:15;;;;;;;5.90;1.17;;;;;;;6.08;100.00;101237.63;6096641;23;20017;-74
2023/10/15 04:11:31;;;;;;;4.40;1.15;;;;;;;6.00;100.00;101192.75;6119966;23;20515;-75
2023/10/15 04:13:57;;;;;;;3.28;1.13;;;;;;;5.99;100.00;101212.41;6096053;23;20021;-73
2023/10/15 04:16:23;;;;;;;3.70;1.40;;;;;;;6.00;100.00;101208.69;6094832;23;20021;-75
2023/10/15 04:18:49;;;;;;;2.80;0.68;;;;;;;5.99;100.00;101210.56;6120810;23;20017;-74
2023/10/15 04:21:16;;;;;;;4.45;0.90;;;;;;;5.97;100.00;101206.50;6144410;23;20020;-74
2023/10/15 04:23:49;;;;;;;4.13;1.05;;;;;;;5.95;100.00;101200.59;6072616;23;20021;-72
2023/10/15 04:26:15;;;;;;;2.63;0.90;;;;;;;5.94;100.00;101199.78;6096806;23;20013;-73
2023/10/15 04:28:43;;;;;;;2.45;0.70;;;;;;;5.93;100.00;101181.41;6147664;23;20392;-72
2023/10/15 04:31:20;;;;;;;2.95;1.08;;;;;;;5.92;100.00;101187.75;6096240;23;20072;-72
2023/10/15 04:33:45;;;;;;;3.50;0.75;;;;;;;5.91;100.00;101175.50;6120851;23;20005;-74
2023/10/15 04:36:13;;;;;;;2.80;0.80;;;;;;;5.91;100.00;101176.31;6120097;23;20512;-74
2023/10/15 04:38:38;;;;;;;3.10;0.70;;;;;;;5.90;100.00;101182.66;6095668;23;20029;-74
2023/10/15 04:41:04;;;;;;;2.80;0.70;;;;;;;5.90;100.00;101195.13;6095502;23;20056;-74
2023/10/15 04:43:41;;;;;;;3.75;1.10;;;;;;;5.89;100.00;101202.31;6120080;23;20017;-72
2023/10/15 04:46:17;;;;;;;3.83;0.70;;;;;;;5.92;100.00;101211.69;6119860;23;20524;-74
2023/10/15 04:48:45;;;;;;;3.88;0.63;;;;;;;5.92;100.00;101214.34;6095662;23;20021;-74
2023/10/15 04:51:14;;;;;;;3.17;0.70;;;;;;;5.91;100.00;101210.06;6119414;23;20067;-73
2023/10/15 04:53:48;;;;;;;4.35;0.90;;;;;;;5.91;100.00;101207.41;6119638;23;20024;-73
2023/10/15 04:56:14;;;;;;;2.45;0.70;;;;;;;5.92;100.00;101206.38;6094560;23;20071;-74
2023/10/15 04:58:40;;;;;;;3.30;0.80;;;;;;;5.92;100.00;101214.34;6146430;23;20016;-75
2023/10/15 05:01:07;;;;;;;1.60;0.82;;;;;;;5.90;100.00;101206.56;6070722;23;20021;-74
2023/10/15 05:03:34;;;;;;;3.42;1.30;;;;;;;5.89;100.00;101214.75;6070963;23;20072;-74
2023/10/15 05:06:02;;;;;;;3.72;0.80;;;;;;;5.87;100.00;101216.84;6095627;23;20319;-75
2023/10/15 05:08:29;;;;;;;5.90;1.25;;;;;;;5.86;100.00;101220.53;6120333;23;20041;-73
2023/10/15 05:10:55;;;;;;;3.72;0.85;;;;;;;5.87;100.00;101227.47;6117973;23;20522;-73
2023/10/15 05:13:24;;;;;;;3.05;0.80;;;;;;;5.89;100.00;101241.34;6120063;23;20022;-73
2023/10/15 05:15:52;;;;;;;2.97;0.73;;;;;;;5.88;100.00;101237.06;6119182;23;20013;-75
2023/10/15 05:18:18;;;;;;;2.38;0.80;;;;;;;5.89;100.00;101247.50;6071417;23;20040;-74
2023/10/15 05:20:47;;;;;;;;;;;;;;;5.89;100.00;101251.97;6118832;23;20440;-73
2023/10/15 05:23:13;;;;;;;2.45;0.77;;;;;;;5.87;100.00;101246.06;6094518;23;19912;-74
2023/10/15 05:25:40;;;;;;;5.55;1.25;;;;;;;5.84;100.00;101244.69;6118214;23;20024;-73
2023/10/15 05:28:06;;;;;;;2.65;0.70;;;;;;;5.86;100.00;101247.13;6146422;23;20088;-72
2023/10/15 05:30:32;;;;;;;;;;;;;;;5.88;100.00;101250.34;6118560;23;20017;-74
2023/10/15 05:33:01;;;;;;;3.63;0.70;;;;;;;5.86;100.00;101236.50;6119928;23;19909;-74
2023/10/15 05:35:27;;;;;;;3.10;0.80;;;;;;;5.90;100.00;101232.34;6094812;23;20461;-73
2023/10/15 05:37:56;;;;;;;1.27;0.50;;;;;;;5.91;100.00;101255.25;6095383;23;20032;-73
2023/10/15 05:40:22;;;;;;;3.53;1.00;;;;;;;5.91;100.00;101249.94;6118296;23;20013;-75
2023/10/15 05:42:48;;;;;;;1.55;0.50;;;;;;;5.91;100.00;101249.94;6119435;23;20017;-73
2023/10/15 05:45:15;;;;;;;2.50;1.00;;;;;;;5.90;100.00;101242.97;6071084;23;20017;-73
2023/10/15 05:47:44;;;;;;;3.67;1.10;;;;;;;5.91;100.00;101247.28;6119733;23;20220;-75
2023/10/15 05:50:12;;;;;;;2.55;1.00;;;;;;;5.91;100.00;101255.25;6119449;23;20770;-74
2023/10/15 05:52:39;;;;;;;2.30;1.00;;;;;;;5.93;100.00;101253.19;6144998;23;20025;-73
2023/10/15 05:55:06;;;;;;;4.18;1.05;;;;;;;5.93;100.00;101258.50;6144836;23;20024;-72
2023/10/15 05:57:33;;;;;;;4.35;1.23;;;;;;;5.94;100.00;101262.78;6145232;23;20675;-72
2023/10/15 06:00:17;;;;;;;3.13;0.90;;;;;;;5.93;100.00;101253.19;6070044;23;20423;-73
2023/10/15 06:02:48;;;;;;;3.60;1.10;;;;;;;5.88;100.00;101231.75;6117809;23;20027;-73
2023/10/15 06:05:15;;;;;;;4.20;0.85;;;;;;;5.87;100.00;101227.47;6117343;23;20048;-74
2023/10/15 06:07:41;;;;;;;2.15;1.10;;;;;;;5.85;100.00;101235.69;6093421;23;20104;-75
2023/10/15 06:10:08;;;;;;;;;;;;;;;5.82;100.00;101238.78;6093603;23;20091;-74
2023/10/15 06:12:34;;;;;;;4.40;1.25;;;;;;;5.81;100.00;101233.69;6118258;23;19908;-74
2023/10/15 06:15:00;;;;;;;3.05;1.00;;;;;;;5.79;100.00;101233.13;6144476;23;20017;-75
2023/10/15 06:17:26;;;;;;;4.10;0.88;;;;;;;5.78;100.00;101228.84;6070862;23;20063;-74
2023/10/15 06:19:52;;;;;;;3.83;0.80;;;;;;;5.77;100.00;101237.84;6095473;23;20088;-73
2023/10/15 06:22:17;;;;;;;2.58;0.70;;;;;;;5.74;100.00;101231.94;6146185;23;20336;-73
2023/10/15 06:24:46;;;;;;;3.05;1.00;;;;;;;5.73;100.00;101235.63;6094743;23;20009;-74
2023/10/15 06:27:13;;;;;;;2.13;0.60;;;;;;;5.71;100.00;101240.38;6118693;23;20022;-75
2023/10/15 06:29:39;;;;;;;3.15;1.23;;;;;;;5.71;100.00;101239.56;6070598;23;20860;-74
2023/10/15 06:32:05;;;;;;;3.05;0.70;;;;;;;5.71;100.00;101247.53;6094081;23;20018;-73
2023/10/15 06:34:32;;;;;;;2.95;1.20;;;;;;;5.72;100.00;101263.25;6119177;23;20060;-74
2023/10/15 06:36:58;;;;;;;1.52;0.50;;;;;;;5.73;100.00;101258.75;6119756;23;20100;-74
2023/10/15 06:39:24;;;;;;;2.53;0.82;;;;;;;5.74;100.00;101261.16;6095164;23;20056;-74
2023/10/15 06:41:50;;;;;;;4.13;1.15;;;;;;;5.80;100.00;101279.91;6070190;23;20467;-73
2023/10/15 06:44:19;;;;;;;2.88;0.80;;;;;;;5.84;100.00;101279.25;6095995;23;20017;-74
2023/10/15 06:46:45;;;;;;;;;;;;;;;5.91;100.00;101292.47;6121303;23;20005;-73
2023/10/15 06:49:10;;;;;;;3.63;0.70;;;;;;;5.94;100.00;101298.16;6073140;23;20308;-74
2023/10/15 06:51:39;;;;;;;3.95;1.20;;;;;;;5.98;100.00;101309.16;6095905;23;20456;-73
2023/10/15 06:54:06;;;;;;;2.50;0.75;;;;;;;6.03;100.00;101303.97;6097636;23;20092;-73
2023/10/15 06:56:31;;;;;;;2.33;0.77;;;;;;;6.02;100.00;101310.31;6119889;23;20032;-74
2023/10/15 06:58:57;;;;;;;2.95;0.70;;;;;;;6.04;100.00;101310.91;6146671;23;20017;-74
2023/10/15 07:01:26;;;;;;;2.05;0.80;;;;;;;6.05;100.00;101309.06;6095896;23;20101;-74
2023/10/15 07:03:52;;;;;;;4.07;0.85;;;;;;;6.05;100.00;101317.84;6096541;23;20071;-74
2023/10/15 07:06:19;;;;;;;2.63;0.70;;;;;;;6.08;100.00;101329.88;6146998;23;20009;-74
2023/10/15 07:08:45;;;;;;;2.40;1.20;;;;;;;6.09;100.00;101331.50;6119754;23;20021;-75
2023/10/15 07:11:12;;;;;;;;;;;;;;;6.11;100.00;101332.09;6121285;23;20015;-74
2023/10/15 07:13:37;;;;;;;1.73;1.20;;;;;;;6.14;100.00;101340.44;6120831;23;19932;-74
2023/10/15 07:16:04;;;;;;;3.10;0.90;;;;;;;6.20;100.00;101334.22;6146762;23;20040;-74
2023/10/15 07:18:32;;;;;;;6.05;0.77;;;;;;;6.23;100.00;101349.72;6121295;23;20013;-74
2023/10/15 07:20:58;;;;;;;4.20;0.93;;;;;;;6.27;100.00;101356.19;6071674;23;20084;-75
2023/10/15 07:23:24;;;;;;;3.75;0.82;;;;;;;6.26;100.00;101370.53;6095227;23;20025;-74
2023/10/15 07:25:55;;;;;;;5.45;0.90;;;;;;;6.25;100.00;101379.56;6120729;23;20013;-74
2023/10/15 07:28:22;;;;;;;2.75;0.88;;;;;;;6.25;100.00;101378.75;6072944;23;20022;-73
2023/10/15 07:30:49;;;;;;;2.65;1.02;;;;;;;6.23;100.00;101389.63;6095246;23;20017;-73
2023/10/15 07:33:16;;;;;;;5.45;0.80;;;;;;;6.21;100.00;101383.69;6147597;23;20009;-74
2023/10/15 07:35:42;;;;;;;4.18;1.25;;;;;;;6.21;100.00;101381.03;6095421;23;20075;-75
2023/10/15 07:38:07;;;;;;;3.83;1.00;;;;;;;6.20;100.00;101376.75;6096069;23;20017;-74
2023/10/15 07:40:33;;;;;;;5.45;1.00;;;;;;;6.24;100.00;101362.00;6119211;23;20464;-73
2023/10/15 07:43:00;;;;;;;4.47;0.90;;;;;;;6.18;100.00;101341.59;6095809;23;20517;-74
2023/10/15 07:45:29;;;;;;;;;;;;;;;6.20;100.00;101355.47;6070674;23;20025;-73
2023/10/15 07:47:59;;;;;;;2.67;0.73;;;;;;;6.20;100.00;101355.47;6121172;23;19947;-74
2023/10/15 07:50:26;;;;;;;4.18;1.10;;;;;;;6.20;100.00;101355.47;6146131;23;20144;-75
2023/10/15 07:52:53;;;;;;;3.13;0.60;;;;;;;6.22;100.00;101345.41;6120321;23;20006;-74
2023/10/15 07:55:19;;;;;;;3.17;0.75;;;;;;;6.21;100.00;101346.47;6145585;23;20021;-74
2023/10/15 07:57:46;;;;;;;3.92;1.55;;;;;;;6.22;100.00;101363.22;6095653;23;20075;-74
2023/10/15 08:00:22;;;;;;;3.65;1.00;;;;;;;6.20;100.00;101367.97;6119998;23;20013;-74
2023/10/15 08:02:52;;;;;;;2.60;1.13;;;;;;;6.20;100.00;101371.44;6095161;23;20108;-74
2023/10/15 08:05:20;;;;;;;3.03;0.90;;;;;;;6.18;100.00;101373.53;6095774;23;20120;-74
2023/10/15 08:07:48;;;;;;;4.72;1.20;;;;;;;6.16;100.00;101374.78;6118912;23;20009;-75
2023/10/15 08:10:14;;;;;;;4.38;1.13;;;;;;;6.12;100.00;101390.38;6119073;23;20017;-75
2023/10/15 08:12:41;;;;;;;4.25;1.15;;;;;;;6.11;100.00;101406.56;6119121;23;20106;-74
2023/10/15 08:15:07;;;;;;;4.20;1.00;;;;;;;6.07;100.00;101384.09;6118795;23;20023;-74
2023/10/15 08:17:33;;;;;;;3.83;0.80;;;;;;;6.07;100.00;101392.06;6119606;23;20025;-74
2023/10/15 08:19:59;;;;;;;2.38;0.63;;;;;;;6.02;100.00;101398.88;6095835;23;20013;-74
2023/10/15 08:22:28;;;;;;;2.55;0.60;;;;;;;5.99;100.00;101388.69;6071710;23;20468;-73
2023/10/15 08:24:55;;;;;;;2.17;0.75;;;;;;;5.96;100.00;101398.94;6094882;23;20017;-75
2023/10/15 08:27:21;;;;;;;3.28;0.93;;;;;;;5.93;100.00;101402.88;6096216;23;20041;-75
2023/10/15 08:29:47;;;;;;;2.85;1.15;;;;;;;5.96;100.00;101410.41;6094909;23;20018;-74
2023/10/15 08:32:18;;;;;;;1.95;0.73;;;;;;;6.01;100.00;101415.03;6119801;23;20021;-73
2023/10/15 08:34:45;;;;;;;4.50;1.00;;;;;;;6.09;100.00;101417.41;6095345;23;20402;-74
2023/10/15 08:37:11;;;;;;;4.30;1.17;;;;;;;6.15;100.00;101436.97;6094001;23;20020;-75
2023/10/15 08:39:40;;;;;;;1.65;0.65;;;;;;;6.18;100.00;101448.00;6095389;23;20017;-74
2023/10/15 08:42:20;;;;;;;3.45;0.52;;;;;;;6.20;100.00;101439.78;6118882;23;20125;-74
2023/10/15 08:44:49;;;;;;;1.58;0.98;;;;;;;6.19;100.00;101436.31;6093968;23;20029;-75
2023/10/15 08:47:16;;;;;;;2.47;0.70;;;;;;;6.21;100.00;101431.56;6094711;23;20020;-74
2023/10/15 08:49:49;;;;;;;1.75;1.00;;;;;;;6.24;100.00;101431.16;6094486;23;20022;-74
2023/10/15 08:52:16;;;;;;;2.25;0.80;;;;;;;6.29;100.00;101444.56;6070988;23;20040;-74
2023/10/15 08:54:44;;;;;;;1.30;0.90;;;;;;;6.33;100.00;101449.47;6094625;23;20028;-74
2023/10/15 08:57:11;;;;;;;2.40;0.73;;;;;;;6.40;100.00;101444.84;6094491;23;20367;-74
2023/10/15 08:59:37;;;;;;;1.67;0.63;;;;;;;6.45;100.00;101450.31;6071252;23;20364;-74
2023/10/15 09:02:08;;;;;;;2.63;0.70;;;;;;;6.48;100.00;101455.19;6142654;23;20020;-75
2023/10/15 09:04:34;;;;;;;5.22;0.70;;;;;;;6.49;100.00;101459.47;6145962;23;20020;-73
2023/10/15 09:07:04;;;;;;;1.65;0.70;;;;;;;6.50;100.00;101458.44;6094884;23;20028;-73
2023/10/15 09:09:34;;;;;;;1.27;0.60;;;;;;;6.46;100.00;101443.97;6095889;23;20021;-74
2023/10/15 09:12:00;;;;;;;1.70;0.65;;;;;;;6.53;100.00;101448.16;6119054;23;20024;-74
2023/10/15 09:14:38;;;;;;;4.32;0.85;;;;;;;6.53;100.00;101456.16;6095532;23;20017;-73
2023/10/15 09:17:06;;;;;;;2.30;0.60;;;;;;;6.48;100.00;101453.34;6119264;23;20021;-75
2023/10/15 09:19:35;;;;;;;1.95;0.63;;;;;;;6.46;100.00;101447.44;6095780;23;20028;-74
2023/10/15 09:22:01;;;;;;;1.67;0.73;;;;;;;6.43;100.00;101455.03;6117960;23;20009;-75
2023/10/15 09:24:27;;;;;;;;;;;;;;;6.43;100.00;101465.69;6095437;23;20021;-74
2023/10/15 09:26:53;;;;;;;2.30;0.98;;;;;;;6.45;100.00;101451.13;6069745;23;20031;-74
2023/10/15 09:29:20;;;;;;;1.63;0.63;;;;;;;6.54;100.00;101468.41;6120180;23;20097;-74
2023/10/15 09:31:47;;;;;;;1.83;0.85;;;;;;;6.71;100.00;101483.78;6118795;23;20041;-74
2023/10/15 09:34:12;;;;;;;2.28;0.70;;;;;;;6.90;100.00;101492.50;6071112;23;20017;-74
2023/10/15 09:36:38;;;;;;;1.88;0.60;;;;;;;7.04;100.00;101507.25;6094080;23;20023;-75
2023/10/15 09:39:12;;;;;;;1.83;0.65;;;;;;;7.05;100.00;101507.03;6094792;23;20036;-74
2023/10/15 09:41:40;;;;;;;3.25;0.40;;;;;;;7.06;100.00;101507.84;6094889;23;20026;-73
2023/10/15 09:44:08;;;;;;;2.15;0.73;;;;;;;7.11;100.00;101500.81;6119392;23;20013;-76
2023/10/15 09:46:34;;;;;;;1.67;0.68;;;;;;;7.27;100.00;101512.66;6146273;23;20717;-78
2023/10/15 09:49:04;;;;;;;3.47;0.80;;;;;;;7.42;100.00;101512.19;6119812;23;20045;-77
2023/10/15 09:51:32;;;;;;;7.07;1.10;;;;;;;7.39;100.00;101510.81;6094753;23;20019;-74
2023/10/15 09:53:59;;;;;;;2.63;1.00;;;;;;;7.35;100.00;101514.16;6070104;23;20017;-74
2023/10/15 09:56:28;;;;;;;2.75;1.00;;;;;;;7.32;100.00;101511.97;6118871;23;20041;-75
2023/10/15 09:58:53;;;;;;;3.13;1.27;;;;;;;7.31;100.00;101519.13;6094510;23;20449;-73
2023/10/15 10:01:28;;;;;;;5.55;1.00;;;;;;;7.30;100.00;101522.84;6094916;23;20440;-74
2023/10/15 10:04:19;;;;;;;2.10;1.00;;;;;;;7.31;100.00;101520.97;6120392;23;20013;-74
2023/10/15 10:07:10;;;;;;;1.92;1.10;;;;;;;7.28;100.00;101506.28;6118368;23;20010;-75
2023/10/15 10:10:14;;;;;;;3.25;1.13;;;;;;;7.26;100.00;101503.03;6071844;23;20013;-74
2023/10/15 10:13:07;;;;;;;3.55;0.80;;;;;;;7.21;100.00;101505.56;6119557;23;20026;-74
2023/10/15 10:15:40;;;;;;;3.28;0.60;;;;;;;7.31;100.00;101511.13;6094889;23;20072;-74
2023/10/15 10:18:06;;;;;;;1.95;0.40;;;;;;;7.49;100.00;101507.56;6095168;23;20024;-74
2023/10/15 10:20:33;;;;;;;2.35;0.70;;;;;;;7.61;100.00;101520.91;6095328;23;20005;-77
2023/10/15 10:23:00;;;;;;;2.00;1.27;;;;;;;7.82;100.00;101524.88;6095056;23;20024;-76
2023/10/15 10:25:48;;;;;;;3.08;0.82;;;;;;;7.93;100.00;101527.53;6095004;23;20088;-74
2023/10/15 10:28:19;;;;;;;3.17;0.75;;;;;;;7.97;100.00;101521.72;6120123;23;20013;-75
2023/10/15 10:30:59;;;;;;;2.30;0.77;;;;;;;7.99;100.00;101523.09;6145745;23;20466;-77
2023/10/15 10:33:45;;;;;;;2.08;0.70;;;;;;;7.99;100.00;101520.44;6120073;23;20035;-75
2023/10/15 10:36:13;;;;;;;3.47;0.88;;;;;;;8.01;100.00;101510.38;6095478;23;20018;-73
2023/10/15 10:38:40;;;;;;;2.95;0.70;;;;;;;8.02;100.00;101506.66;6120834;23;20103;-73
2023/10/15 10:41:15;;;;;;;3.10;0.80;;;;;;;7.99;100.00;101522.31;6117332;23;20145;-73
2023/10/15 10:43:44;;;;;;;3.67;1.15;;;;;;;7.89;100.00;101507.72;6072109;23;20025;-72
2023/10/15 10:46:23;;;;;;;3.22;0.75;;;;;;;7.82;100.00;101500.88;6095672;23;20100;-73
2023/10/15 10:49:06;;;;;;;4.60;1.17;;;;;;;7.79;100.00;101496.81;6095156;23;20021;-74
2023/10/15 10:51:35;;;;;;;3.78;0.80;;;;;;;7.83;100.00;101497.97;6094800;23;20020;-73
2023/10/15 10:54:03;;;;;;;3.38;1.15;;;;;;;7.96;100.00;101509.44;6146140;23;20014;-73
2023/10/15 10:56:38;;;;;;;4.82;1.02;;;;;;;8.05;100.00;101518.69;6146399;23;20386;-73
2023/10/15 10:59:08;;;;;;;3.75;0.80;;;;;;;8.17;100.00;101508.84;6119232;23;20013;-72
2023/10/15 11:01:39;;;;;;;4.35;1.10;;;;;;;8.25;100.00;101505.78;6118824;23;20009;-74
2023/10/15 11:04:10;;;;;;;3.28;0.93;;;;;;;8.32;100.00;101497.66;6091301;23;20021;-75
2023/10/15 11:06:39;;;;;;;6.03;0.88;;;;;;;8.37;100.00;101503.94;6119153;23;20479;-74
2023/10/15 11:09:15;;;;;;;5.18;0.85;;;;;;;8.44;100.00;101506.50;6095344;23;20427;-75
2023/10/15 11:11:53;;;;;;;3.17;1.00;;;;;;;8.54;100.00;101495.22;6094233;23;20023;-73
2023/10/15 11:14:24;;;;;;;6.70;1.00;;;;;;;8.51;100.00;101493.00;6120651;23;20017;-74
2023/10/15 11:16:51;;;;;;;4.65;1.10;;;;;;;8.57;100.00;101492.06;6119215;23;20018;-74
2023/10/15 11:19:23;;;;;;;5.25;0.80;;;;;;;8.64;100.00;101482.03;6096524;23;20029;-77
2023/10/15 11:21:51;;;;;;;2.70;1.00;;;;;;;8.70;100.00;101478.44;6094520;23;20014;-74
2023/10/15 11:24:23;;;;;;;4.40;0.80;;;;;;;8.70;100.00;101476.56;6072837;23;20057;-77
2023/10/15 11:26:49;;;;;;;3.80;0.77;;;;;;;8.77;100.00;101486.28;6095705;23;20025;-73
2023/10/15 11:29:20;;;;;;;3.90;1.08;;;;;;;8.84;100.00;101482.41;6096191;23;20523;-76
2023/10/15 11:31:56;;;;;;;4.45;1.02;;;;;;;9.03;100.00;101502.53;6096473;23;20017;-75
2023/10/15 11:34:24;;;;;;;3.30;1.05;;;;;;;9.11;100.00;101506.69;6119595;23;20021;-75
2023/10/15 11:36:55;;;;;;;2.13;1.10;;;;;;;8.95;100.00;101483.44;6072890;23;20019;-74
2023/10/15 11:39:37;;;;;;;2.10;0.70;;;;;;;9.01;100.00;101493.16;6122082;23;20013;-75
2023/10/15 11:42:07;;;;;;;4.82;1.10;;;;;;;9.14;100.00;101502.69;6072370;23;20022;-75
2023/10/15 11:44:37;;;;;;;3.67;0.90;;;;;;;9.19;100.00;101495.59;6097765;23;20100;-78
2023/10/15 11:47:08;;;;;;;3.35;0.98;;;;;;;9.14;100.00;101516.88;6096552;23;20018;-75
2023/10/15 11:49:38;;;;;;;5.13;1.20;;;;;;;9.04;100.00;101506.00;6098035;23;20020;-76
2023/10/15 11:52:05;;;;;;;3.28;0.98;;;;;;;9.00;100.00;101492.31;6120376;23;20435;-75
2023/10/15 11:54:32;;;;;;;2.28;0.77;;;;;;;9.01;100.00;101495.81;6097491;23;20104;-78